.
WxDataArchive / Data Records for 2015-10-26
2015-10-25 October 2015 2015-10-27

Data Records for Monday, 26 October 2015

Time	Temp	Chill	HIndex	Humid	Dewpt	 Wind 	HiWind	WindDir	Rain 	Barom
-----	----	-----	------	-----	-----	------	------	-------	-----	-----
00:00	41.3	41.3	41.3	83	36.5	0	0	---	0.00	30.362 
00:05	41.2	41.2	41.2	83	36.4	0	0	---	0.00	30.362 
00:10	40.9	40.9	40.9	83	36.1	0	0	---	0.00	30.362 
00:15	40.8	40.8	40.8	83	36.0	0	0	---	0.00	30.362 
00:20	40.6	40.6	40.6	84	36.2	0	0	---	0.00	30.362 
00:25	40.5	40.5	40.5	84	36.1	0	0	---	0.00	30.362 
00:30	40.3	40.3	40.3	84	35.9	0	0	---	0.00	30.368 
00:35	40.2	40.2	40.2	84	35.8	0	0	---	0.00	30.368 
00:40	40.1	40.1	40.1	85	36.0	0	0	---	0.00	30.368 
00:45	39.9	39.9	39.9	85	35.8	0	0	---	0.00	30.370 
00:50	39.8	39.8	39.8	85	35.7	0	0	---	0.00	30.370 
00:55	39.6	39.6	39.6	85	35.5	0	0	---	0.00	30.370 
01:00	39.6	39.6	39.6	85	35.5	0	0	---	0.00	30.371 
01:05	39.5	39.5	39.5	86	35.7	0	0	---	0.00	30.371 
01:10	39.2	39.2	39.2	86	35.4	0	0	---	0.00	30.371 
01:15	39.1	39.1	39.1	86	35.3	0	0	---	0.00	30.371 
01:20	38.9	38.9	38.9	86	35.1	0	0	---	0.00	30.371 
01:25	38.9	38.9	38.9	87	35.4	0	0	---	0.00	30.371 
01:30	38.8	38.8	38.8	87	35.3	0	0	---	0.00	30.372 
01:35	38.8	38.8	38.8	87	35.3	0	0	---	0.00	30.372 
01:40	38.6	38.6	38.6	87	35.1	0	0	---	0.00	30.372 
01:45	38.5	38.5	38.5	88	35.3	0	0	---	0.00	30.371 
01:50	38.5	38.5	38.5	88	35.3	0	0	---	0.00	30.371 
01:55	38.3	38.3	38.3	88	35.1	0	0	---	0.00	30.371 
02:00	38.2	38.2	38.2	88	35.0	0	0	---	0.00	30.372 
02:05	38.2	38.2	38.2	88	35.0	0	0	---	0.00	30.372 
02:10	38.0	38.0	38.0	88	34.8	0	0	---	0.00	30.372 
02:15	38.0	38.0	38.0	88	34.8	0	0	---	0.00	30.369 
02:20	37.9	37.9	37.9	88	34.7	0	0	---	0.00	30.369 
02:25	37.8	37.8	37.8	88	34.6	0	0	---	0.00	30.369 
02:30	37.8	37.8	37.8	89	34.9	0	0	---	0.00	30.371 
02:35	37.6	37.6	37.6	89	34.7	0	0	---	0.00	30.371 
02:40	37.6	37.6	37.6	89	34.7	0	0	---	0.00	30.371 
02:45	37.5	37.5	37.5	89	34.6	0	0	---	0.00	30.368 
02:50	37.5	37.5	37.5	89	34.6	0	0	---	0.00	30.368 
02:55	37.3	37.3	37.3	89	34.4	0	0	---	0.00	30.368 
03:00	37.3	37.3	37.3	89	34.4	0	0	---	0.00	30.373 
03:05	37.3	37.3	37.3	89	34.4	0	0	---	0.00	30.373 
03:10	37.3	37.3	37.3	90	34.6	0	0	---	0.00	30.373 
03:15	37.3	37.3	37.3	90	34.6	0	0	---	0.00	30.373 
03:20	37.2	37.2	37.2	90	34.5	0	0	---	0.00	30.373 
03:25	37.2	37.2	37.2	90	34.5	0	0	---	0.00	30.373 
03:30	37.0	37.0	37.0	90	34.3	0	0	---	0.00	30.374 
03:35	37.0	37.0	37.0	90	34.3	0	0	---	0.00	30.374 
03:40	37.0	37.0	37.0	90	34.3	0	0	---	0.00	30.374 
03:45	36.9	36.9	36.9	90	34.2	0	0	---	0.00	30.373 
03:50	36.9	36.9	36.9	90	34.2	0	0	---	0.00	30.373 
03:55	36.9	36.9	36.9	90	34.2	0	0	---	0.00	30.373 
04:00	36.9	36.9	36.9	90	34.2	0	0	---	0.00	30.373 
04:05	36.9	36.9	36.9	90	34.2	0	0	---	0.00	30.373 
04:10	36.8	36.8	36.8	90	34.1	0	0	---	0.00	30.373 
04:15	36.8	36.8	36.8	90	34.1	0	0	---	0.00	30.366 
04:20	36.6	36.6	36.6	91	34.2	0	0	---	0.00	30.366 
04:25	36.6	36.6	36.6	91	34.2	0	0	---	0.00	30.366 
04:30	36.5	36.5	36.5	91	34.1	0	0	---	0.00	30.360 
04:35	36.5	36.5	36.5	91	34.1	0	0	---	0.00	30.360 
04:40	36.5	36.5	36.5	91	34.1	0	0	---	0.00	30.360 
04:45	36.5	36.5	36.5	91	34.1	0	0	---	0.00	30.366 
04:50	36.5	36.5	36.5	91	34.1	0	0	---	0.00	30.366 
04:55	36.5	36.5	36.5	91	34.1	0	0	---	0.00	30.366 
05:00	36.3	36.3	36.3	91	33.9	0	0	---	0.00	30.372 
05:05	36.3	36.3	36.3	91	33.9	0	0	---	0.00	30.372 
05:10	36.2	36.2	36.2	91	33.8	0	0	---	0.00	30.372 
05:15	36.2	36.2	36.2	91	33.8	0	0	---	0.00	30.375 
05:20	36.0	36.0	36.0	91	33.6	0	0	---	0.00	30.375 
05:25	36.0	36.0	36.0	91	33.6	0	0	---	0.00	30.375 
05:30	36.0	36.0	36.0	92	33.9	0	0	---	0.00	30.376 
05:35	36.0	36.0	36.0	92	33.9	0	0	---	0.00	30.376 
05:40	36.2	36.2	36.2	92	34.1	0	0	---	0.00	30.376 
05:45	36.3	36.3	36.3	92	34.2	0	0	---	0.00	30.379 
05:50	36.5	36.5	36.5	92	34.4	0	0	---	0.00	30.379 
05:55	36.6	36.6	36.6	92	34.5	0	0	---	0.00	30.379 
06:00	36.6	36.6	36.6	92	34.5	0	0	---	0.00	30.383 
06:05	36.6	36.6	36.6	92	34.5	0	0	---	0.00	30.383 
06:10	36.6	36.6	36.6	92	34.5	0	0	---	0.00	30.383 
06:15	36.6	36.6	36.6	92	34.5	0	0	---	0.00	30.379 
06:20	36.6	36.6	36.6	92	34.5	0	0	---	0.00	30.379 
06:25	36.6	36.6	36.6	92	34.5	0	0	---	0.00	30.379 
06:30	36.6	36.6	36.6	92	34.5	0	0	---	0.00	30.375 
06:35	36.6	36.6	36.6	92	34.5	0	0	---	0.00	30.375 
06:40	36.6	36.6	36.6	92	34.5	0	0	---	0.00	30.375 
06:45	36.6	36.6	36.6	92	34.5	0	0	---	0.00	30.376 
06:50	36.6	36.6	36.6	92	34.5	0	0	---	0.00	30.376 
06:55	36.6	36.6	36.6	92	34.5	0	0	---	0.00	30.376 
07:00	36.6	36.6	36.6	92	34.5	0	0	---	0.00	30.379 
07:05	36.5	36.5	36.5	92	34.4	0	0	---	0.00	30.379 
07:10	36.5	36.5	36.5	92	34.4	0	0	---	0.00	30.379 
07:15	36.3	36.3	36.3	92	34.2	0	0	---	0.00	30.387 
07:20	36.2	36.2	36.2	92	34.1	0	0	---	0.00	30.387 
07:25	36.2	36.2	36.2	92	34.1	0	0	---	0.00	30.387 
07:30	36.0	36.0	36.0	92	33.9	0	0	---	0.00	30.392 
07:35	36.0	36.0	36.0	92	33.9	0	0	---	0.00	30.392 
07:40	35.9	35.9	35.9	92	33.8	0	0	---	0.00	30.392 
07:45	35.9	35.9	35.9	92	33.8	0	0	---	0.00	30.398 
07:50	35.8	35.8	35.8	92	33.7	0	0	---	0.00	30.398 
07:55	35.8	35.8	35.8	92	33.7	0	0	---	0.00	30.398 
08:00	35.8	35.8	35.8	92	33.7	0	0	---	0.00	30.399 
08:05	35.6	35.6	35.6	92	33.5	0	0	---	0.00	30.399 
08:10	35.6	35.6	35.6	93	33.8	0	0	---	0.00	30.399 
08:15	35.6	35.6	35.6	93	33.8	0	0	---	0.00	30.399 
08:20	35.6	35.6	35.6	93	33.8	0	0	---	0.00	30.399 
08:25	35.6	35.6	35.6	93	33.8	0	0	---	0.00	30.399 
08:30	35.6	35.6	35.6	93	33.8	0	0	---	0.00	30.399 
08:35	35.8	35.8	35.8	93	34.0	0	0	---	0.00	30.399 
08:40	35.9	35.9	35.9	93	34.1	0	0	---	0.00	30.399 
08:45	36.0	36.0	36.0	93	34.2	0	0	---	0.00	30.396 
08:50	36.2	36.2	36.2	93	34.4	0	0	---	0.00	30.396 
08:55	36.6	36.6	36.6	93	34.8	0	0	---	0.00	30.396 
09:00	37.0	37.0	37.0	94	35.4	0	0	---	0.00	30.403 
09:05	37.8	37.8	37.8	94	36.2	0	0	---	0.00	30.403 
09:10	38.5	38.5	38.5	94	36.9	0	1	338	0.00	30.403 
09:15	39.2	39.2	39.2	94	37.6	0	0	---	0.00	30.411 
09:20	39.9	39.9	39.9	94	38.3	0	2	68	0.00	30.411 
09:25	40.5	40.5	40.5	94	38.9	0	1	68	0.00	30.411 
09:30	41.1	41.1	41.1	93	39.2	0	2	68	0.00	30.415 
09:35	41.6	41.6	41.6	92	39.5	0	1	68	0.00	30.415 
09:40	42.2	42.2	42.2	92	40.0	0	2	68	0.00	30.415 
09:45	42.8	42.8	42.8	90	40.1	1	3	68	0.00	30.413 
09:50	43.3	43.3	43.3	88	40.0	0	2	68	0.00	30.413 
09:55	43.8	43.8	43.8	87	40.2	0	2	68	0.00	30.413 
10:00	44.3	44.3	44.3	87	40.7	0	1	68	0.00	30.412 
10:05	45.2	45.2	45.2	84	40.7	0	2	68	0.00	30.412 
10:10	46.2	46.2	46.2	81	40.7	1	4	68	0.00	30.412 
10:15	47.1	47.1	47.1	80	41.3	0	1	90	0.00	30.416 
10:20	47.9	47.9	47.9	77	41.0	1	4	90	0.00	30.416 
10:25	48.8	48.8	48.8	76	41.6	0	2	90	0.00	30.416 
10:30	49.1	49.1	49.1	74	41.2	0	1	90	0.00	30.413 
10:35	49.5	49.5	49.5	71	40.5	0	2	90	0.00	30.413 
10:40	50.1	50.1	50.1	69	40.3	1	3	90	0.00	30.413 
10:45	50.4	50.4	50.4	69	40.6	1	4	90	0.00	30.411 
10:50	50.8	50.8	50.8	68	40.6	1	4	90	0.00	30.411 
10:55	51.1	51.1	51.1	67	40.5	1	4	90	0.00	30.411 
11:00	51.4	51.4	51.4	67	40.8	1	4	90	0.00	30.410 
11:05	51.7	51.7	51.7	65	40.3	1	3	90	0.00	30.410 
11:10	51.9	51.9	51.9	64	40.1	1	4	90	0.00	30.410 
11:15	51.9	51.9	51.9	63	39.7	1	4	90	0.00	30.410 
11:20	52.2	52.2	52.2	64	40.4	1	4	90	0.00	30.410 
11:25	52.5	52.5	52.5	64	40.7	1	3	112	0.00	30.410 
11:30	52.9	52.9	52.9	64	41.1	1	3	112	0.00	30.404 
11:35	53.3	53.3	53.3	62	40.6	1	4	112	0.00	30.404 
11:40	53.8	53.8	53.8	59	39.8	2	6	68	0.00	30.404 
11:45	53.9	53.9	53.9	58	39.5	2	5	90	0.00	30.406 
11:50	54.4	54.4	54.4	58	39.9	1	3	90	0.00	30.406 
11:55	55.0	55.0	55.0	56	39.6	0	2	90	0.00	30.406 
12:00	55.4	55.4	55.4	56	40.0	2	5	90	0.00	30.404 
12:05	55.6	55.6	55.6	56	40.2	1	3	90	0.00	30.404 
12:10	56.0	56.0	56.0	55	40.1	0	1	112	0.00	30.404 
12:15	56.6	56.6	56.6	54	40.1	1	5	112	0.00	30.399 
12:20	56.9	56.9	56.9	53	39.9	1	3	68	0.00	30.399 
12:25	57.0	57.0	57.0	52	39.5	1	4	68	0.00	30.399 
12:30	57.2	57.2	57.2	51	39.2	1	3	90	0.00	30.392 
12:35	57.2	57.2	57.2	50	38.7	2	4	90	0.00	30.392 
12:40	57.3	57.3	57.3	52	39.8	2	5	90	0.00	30.392 
12:45	57.3	57.3	57.3	51	39.3	1	5	90	0.00	30.389 
12:50	57.6	57.6	57.6	50	39.1	2	6	68	0.00	30.389 
12:55	57.8	57.8	57.8	50	39.3	2	6	90	0.00	30.389 
13:00	57.6	57.6	57.6	49	38.6	3	6	90	0.00	30.382 
13:05	57.8	57.8	57.8	48	38.2	2	5	90	0.00	30.382 
13:10	58.0	58.0	58.0	48	38.4	2	4	90	0.00	30.382 
13:15	58.3	58.3	58.3	48	38.7	1	4	112	0.00	30.374 
13:20	58.4	58.4	58.4	48	38.8	2	6	90	0.00	30.374 
13:25	58.3	58.3	58.3	49	39.2	1	5	90	0.00	30.374 
13:30	58.4	58.4	58.4	49	39.3	2	6	90	0.00	30.371 
13:35	58.6	58.6	58.6	47	38.4	2	6	90	0.00	30.371 
13:40	58.7	58.7	58.7	46	38.0	2	5	90	0.00	30.371 
13:45	58.9	58.9	58.9	46	38.2	2	6	112	0.00	30.361 
13:50	59.0	59.0	59.0	46	38.2	1	3	112	0.00	30.361 
13:55	59.3	59.3	59.3	46	38.5	1	4	90	0.00	30.361 
14:00	59.3	59.3	59.3	44	37.4	2	5	112	0.00	30.354 
14:05	59.2	59.2	59.2	45	37.9	2	6	112	0.00	30.354 
14:10	59.2	59.2	59.2	46	38.4	2	6	90	0.00	30.354 
14:15	59.5	59.5	59.5	46	38.7	2	4	90	0.00	30.347 
14:20	59.8	59.8	59.8	45	38.4	1	6	90	0.00	30.347 
14:25	60.1	60.1	60.1	45	38.7	2	6	90	0.00	30.347 
14:30	60.2	60.2	60.2	44	38.2	1	6	90	0.00	30.339 
14:35	60.1	60.1	60.1	43	37.5	2	5	90	0.00	30.339 
14:40	60.1	60.1	60.1	42	36.9	1	4	68	0.00	30.339 
14:45	60.1	60.1	60.1	41	36.3	2	5	90	0.00	30.338 
14:50	59.9	59.9	59.9	42	36.8	1	6	90	0.00	30.338 
14:55	59.9	59.9	59.9	40	35.5	3	7	90	0.00	30.338 
15:00	59.9	59.9	59.9	40	35.5	2	4	68	0.00	30.336 
15:05	59.9	59.9	59.9	40	35.5	2	5	68	0.00	30.336 
15:10	59.9	59.9	59.9	41	36.1	2	7	112	0.00	30.336 
15:15	59.9	59.9	59.9	40	35.5	2	7	112	0.00	30.332 
15:20	59.8	59.8	59.8	40	35.4	2	5	68	0.00	30.332 
15:25	59.9	59.9	59.9	41	36.1	1	5	90	0.00	30.332 
15:30	60.1	60.1	60.1	40	35.7	2	5	68	0.00	30.324 
15:35	60.2	60.2	60.2	41	36.4	2	5	90	0.00	30.324 
15:40	60.1	60.1	60.1	41	36.3	2	3	68	0.00	30.324 
15:45	60.1	60.1	60.1	39	35.1	2	6	90	0.00	30.324 
15:50	59.9	59.9	59.9	39	34.9	2	6	90	0.00	30.324 
15:55	60.1	60.1	60.1	40	35.7	1	5	90	0.00	30.324 
16:00	60.1	60.1	60.1	39	35.1	1	6	90	0.00	30.322 
16:05	60.1	60.1	60.1	41	36.3	1	6	68	0.00	30.322 
16:10	60.1	60.1	60.1	42	36.9	1	4	90	0.00	30.322 
16:15	59.9	59.9	59.9	41	36.1	2	5	90	0.00	30.322 
16:20	59.9	59.9	59.9	42	36.8	1	3	90	0.00	30.322 
16:25	59.8	59.8	59.8	41	36.1	2	6	90	0.00	30.322 
16:30	59.6	59.6	59.6	43	37.1	1	5	112	0.00	30.317 
16:35	59.6	59.6	59.6	42	36.5	2	5	68	0.00	30.317 
16:40	59.6	59.6	59.6	42	36.5	1	3	90	0.00	30.317 
16:45	59.8	59.8	59.8	42	36.7	1	5	90	0.00	30.310 
16:50	59.8	59.8	59.8	42	36.7	2	6	90	0.00	30.310 
16:55	59.8	59.8	59.8	41	36.1	2	7	90	0.00	30.310 
17:00	59.8	59.8	59.8	42	36.7	1	5	112	0.00	30.312 
17:05	59.8	59.8	59.8	40	35.4	2	6	90	0.00	30.312 
17:10	59.5	59.5	59.5	41	35.8	2	7	112	0.00	30.312 
17:15	59.3	59.3	59.3	41	35.6	1	5	112	0.00	30.314 
17:20	59.3	59.3	59.3	41	35.6	1	5	112	0.00	30.314 
17:25	59.3	59.3	59.3	42	36.2	0	5	90	0.00	30.314 
17:30	59.3	59.3	59.3	41	35.6	0	4	112	0.00	30.321 
17:35	59.2	59.2	59.2	42	36.1	1	4	112	0.00	30.321 
17:40	59.0	59.0	59.0	42	35.9	1	5	112	0.00	30.321 
17:45	58.9	58.9	58.9	43	36.4	1	4	68	0.00	30.323 
17:50	58.9	58.9	58.9	43	36.4	1	5	112	0.00	30.323 
17:55	58.7	58.7	58.7	44	36.8	0	3	112	0.00	30.323 
18:00	58.6	58.6	58.6	44	36.8	1	5	112	0.00	30.324 
18:05	58.3	58.3	58.3	43	35.9	1	3	90	0.00	30.324 
18:10	58.1	58.1	58.1	44	36.3	0	2	90	0.00	30.324 
18:15	57.8	57.8	57.8	45	36.6	1	4	68	0.00	30.324 
18:20	57.5	57.5	57.5	46	36.9	0	2	68	0.00	30.324 
18:25	57.2	57.2	57.2	47	37.2	0	2	68	0.00	30.324 
18:30	56.9	56.9	56.9	48	37.4	0	1	68	0.00	30.320 
18:35	56.6	56.6	56.6	48	37.1	0	2	68	0.00	30.320 
18:40	56.3	56.3	56.3	49	37.4	0	3	68	0.00	30.320 
18:45	56.2	56.2	56.2	50	37.8	0	1	68	0.00	30.323 
18:50	55.7	55.7	55.7	50	37.3	0	0	---	0.00	30.323 
18:55	55.4	55.4	55.4	51	37.6	0	1	68	0.00	30.323 
19:00	55.0	55.0	55.0	52	37.7	0	1	68	0.00	30.322 
19:05	54.7	54.7	54.7	51	36.9	0	1	68	0.00	30.322 
19:10	54.4	54.4	54.4	52	37.1	0	1	68	0.00	30.322 
19:15	54.2	54.2	54.2	52	37.0	0	1	68	0.00	30.329 
19:20	54.1	54.1	54.1	53	37.4	0	1	68	0.00	30.329 
19:25	53.8	53.8	53.8	53	37.1	0	1	68	0.00	30.329 
19:30	53.5	53.5	53.5	54	37.3	0	1	68	0.00	30.332 
19:35	53.1	53.1	53.1	54	36.9	0	0	---	0.00	30.332 
19:40	52.8	52.8	52.8	56	37.5	0	0	---	0.00	30.332 
19:45	52.3	52.3	52.3	57	37.5	0	0	---	0.00	30.341 
19:50	51.9	51.9	51.9	58	37.6	0	0	---	0.00	30.341 
19:55	51.4	51.4	51.4	58	37.1	0	0	---	0.00	30.341 
20:00	51.1	51.1	51.1	59	37.3	0	0	---	0.00	30.343 
20:05	50.8	50.8	50.8	59	37.0	0	0	---	0.00	30.343 
20:10	50.7	50.7	50.7	59	36.9	0	1	68	0.00	30.343 
20:15	50.7	50.7	50.7	59	36.9	0	1	68	0.00	30.344 
20:20	50.8	50.8	50.8	59	37.0	0	1	68	0.00	30.344 
20:25	51.0	51.0	51.0	59	37.2	0	1	68	0.00	30.344 
20:30	51.1	51.1	51.1	58	36.8	0	2	68	0.00	30.349 
20:35	51.3	51.3	51.3	58	37.0	0	1	68	0.00	30.349 
20:40	51.3	51.3	51.3	58	37.0	1	3	68	0.00	30.349 
20:45	51.1	51.1	51.1	59	37.3	0	2	90	0.00	30.361 
20:50	51.0	51.0	51.0	60	37.6	0	2	90	0.00	30.361 
20:55	50.8	50.8	50.8	60	37.4	1	4	90	0.00	30.361 
21:00	50.7	50.7	50.7	62	38.2	0	1	90	0.00	30.361 
21:05	50.4	50.4	50.4	62	37.9	0	2	90	0.00	30.361 
21:10	50.4	50.4	50.4	64	38.7	2	5	68	0.00	30.361 
21:15	50.7	50.7	50.7	65	39.4	3	7	90	0.00	30.356 
21:20	51.0	51.0	51.0	65	39.7	1	4	112	0.00	30.356 
21:25	51.0	51.0	51.0	65	39.7	2	9	90	0.00	30.356 
21:30	51.0	51.0	51.0	65	39.7	2	9	90	0.00	30.349 
21:35	50.8	50.8	50.8	66	39.9	2	5	90	0.00	30.349 
21:40	50.8	50.8	50.8	66	39.9	3	12	90	0.00	30.349 
21:45	50.7	50.7	50.7	67	40.1	3	7	90	0.00	30.345 
21:50	50.5	50.5	50.5	67	40.0	3	7	90	0.00	30.345 
21:55	50.4	50.4	50.4	68	40.2	2	5	90	0.00	30.345 
22:00	50.2	50.2	50.2	69	40.4	2	7	90	0.00	30.350 
22:05	50.1	50.1	50.1	69	40.3	2	5	112	0.00	30.350 
22:10	49.8	49.8	49.8	70	40.4	1	3	90	0.00	30.350 
22:15	49.6	49.6	49.6	71	40.6	1	3	90	0.00	30.347 
22:20	49.5	49.5	49.5	72	40.9	2	4	90	0.00	30.347 
22:25	49.4	49.4	49.4	72	40.8	2	6	90	0.00	30.347 
22:30	49.4	49.4	49.4	73	41.1	1	4	68	0.00	30.339 
22:35	49.2	49.2	49.2	73	40.9	2	6	90	0.00	30.339 
22:40	49.2	49.2	49.2	73	40.9	1	5	112	0.00	30.339 
22:45	49.1	49.1	49.1	74	41.2	1	4	68	0.00	30.338 
22:50	49.1	49.1	49.1	74	41.2	1	5	90	0.00	30.338 
22:55	49.1	49.1	49.1	74	41.2	1	4	90	0.00	30.338 
23:00	49.1	49.1	49.1	75	41.5	2	5	90	0.00	30.340 
23:05	49.2	49.2	49.2	74	41.3	1	4	90	0.00	30.340 
23:10	49.2	49.2	49.2	75	41.6	2	6	90	0.00	30.340 
23:15	49.2	49.2	49.2	75	41.6	2	6	90	0.00	30.337 
23:20	49.2	49.2	49.2	75	41.6	2	6	90	0.00	30.337 
23:25	49.1	49.1	49.1	75	41.5	1	4	90	0.00	30.337 
23:30	48.9	48.9	48.9	76	41.7	1	4	90	0.00	30.334 
23:35	48.9	48.9	48.9	76	41.7	2	4	90	0.00	30.334 
23:40	48.8	48.8	48.8	77	41.9	2	6	90	0.00	30.334 
23:45	48.8	48.8	48.8	77	41.9	1	4	90	0.00	30.332 
23:50	48.8	48.8	48.8	77	41.9	1	4	90	0.00	30.332 
23:55	48.6	48.6	48.6	77	41.7	2	6	90	0.00	30.332 

CoCoRaHS
IN-AL-39
A2 Web Hosting
Creative Commons License
GoDaddy
search engine by freefind advanced

loaded 2018-11-15 14:06:38 • last modified 2010-11-18 10:43:29
Privacy PolicyDisclaimer
• wx.awcolley.com is powered by PmWiki v.2002016 •
• all content (unless otherwise noted) © 2018 A W Colley